RV Helmer Hanssen — LAHV — position and weather

sailwx.info

Track history (hours):
 
Tides and Currents Weather Stations Pressure Air Temp Water Temp Dewpoint Dewpoint Depression Visibility Wind Speed Wind Dir Waves Ship Positions

Oceanographic research ship RV Helmer Hanssen (Norway)

ex Jan Mayen.

Ship's website: http://uit.no/bfe

Detailed information on ship capabilities available from University of Delaware's Ocean Information Center and ARCUS's ALIAS (Arctic Logistics Information and Support) project.

Last reported at 2017-Oct-18 00:00 UTC. Time now 2017-Oct-18 02:11 UTC.
Position N 80°18' E 015°18'.

Length 64 m; beam 13 m.

Type: Cargo ship. MMSI: 257471500.

Wind from 180 at 16 knots

Barometer 1014.3 mb
Air temperature 3.7 ° C
Dewpoint 0.6 ° C
Water temperature 5.2 ° C

Date/timePositionNaut miles runAvg speedWind from/ knotsBaromVisibWave heightAir tempDewpointWater temp
2017-Oct-18 00:00N 80°18' E 015°18'3110.4 180 / 161014.3 3.7 0.6 5.2
2017-Oct-17 21:00N 80°42' E 013°18'3110.2 170 / 21013.5 2.7 1.6 2.7
2017-Oct-17 18:00N 81°06' E 011°18'27 8.9 240 / 101012.1 -0.5-1.4-0.4
2017-Oct-17 15:00N 81°30' E 010°00'24 8.0 100 / 161011.5 -0.8-1.7-1.6
2017-Oct-17 12:00N 81°54' E 010°00'1 0.3 120 / 141012.7 -0.9-2.2-1.5
2017-Oct-17 09:00N 81°54' E 009°54'10 3.5 110 / 141012.6 -1.1-2.3-1.4
2017-Oct-17 06:00N 81°48' E 008°54'1 0.3 110 / 171011.7 -0.9-1.9-1.5
2017-Oct-17 03:00N 81°48' E 009°00'0 0.0 130 / 211011.0 -0.6-1.7-1.6
2017-Oct-17 00:00N 81°48' E 009°00'0 0.0 110 / 161011.3 -1.0-1.9-1.5
2017-Oct-16 21:00N 81°48' E 009°00'3 0.9 120 / 161010.8 -0.5-1.5-1.6
2017-Oct-16 18:00N 81°48' E 008°42'12 4.0 110 / 121010.2 -1.1-2.0-1.6
2017-Oct-16 15:00N 81°36' E 008°54'3010.0 110 / 171009.5 -0.2-1.0-1.7
2017-Oct-16 12:00N 81°06' E 009°00'3210.7 100 / 171008.5 -0.2-1.0-1.6
2017-Oct-16 09:00N 80°36' E 010°12'6 2.1 130 / 171008.2 2.7-0.5-0.4
2017-Oct-16 06:00N 80°30' E 010°00'6 2.0 120 / 161007.729.7 1.5 5.0 1.5 4.3
2017-Oct-16 03:00N 80°36' E 010°06'0 0.0 110 / 171008.5 4.5 1.3 4.2
2017-Oct-16 00:00N 80°36' E 010°06'14 4.6 140 / 191009.3 5.2 1.3 4.2
2017-Oct-15 21:00N 80°24' E 009°24'9 3.1 130 / 161009.729.7 1.5 4.9 1.6 5.3
2017-Oct-15 18:00N 80°18' E 008°42'3 1.0 130 / 161010.2 4.7 0.6 4.8
2017-Oct-15 15:00N 80°18' E 009°00'9 3.1 120 / 161011.1 5.0 1.3 5.4
2017-Oct-15 12:00N 80°12' E 008°18'13 4.4 110 / 121011.529.7 1.5 5.7 1.8 5.5
2017-Oct-15 09:00N 80°00' E 007°48'1 0.3 090 / 81011.329.7 1.5 5.5 2.2 5.4
2017-Oct-15 06:00N 80°00' E 007°42'6 2.0 080 / 141010.7 1.5 5.9-0.3 6.2
2017-Oct-15 03:00N 80°06' E 007°48'6 2.0 090 / 41010.7 5.2 2.0 5.3
2017-Oct-15 00:00N 80°00' E 007°48'6 2.1 160 / 41010.5 5.2 2.2 5.0
2017-Oct-14 21:00N 79°54' E 008°00'14 4.6 160 / 21009.7 5.4 2.6 7.0
2017-Oct-14 18:00N 79°54' E 009°18'3210.5 180 / 21009.2 5.2 1.6 6.4
2017-Oct-14 15:00N 79°54' E 012°18'22 7.3 130 / 161009.8 4.7-0.0 5.3
2017-Oct-14 12:00N 80°00' E 014°18'1 0.3 140 / 251010.8 5.2-0.3 4.5
2017-Oct-14 09:00N 80°00' E 014°24'6 2.0 130 / 161011.2 5.0 0.6 4.5
2017-Oct-14 06:00N 79°54' E 014°24'9 3.2 140 / 171011.3 0.5 5.2 1.1 4.7
2017-Oct-14 03:00N 80°00' E 013°42'22 7.5 120 / 121011.8 4.9 0.8 4.8
2017-Oct-14 00:00N 80°18' E 012°24'6 2.0 070 / 101012.6 5.0 1.3 5.6
2017-Oct-13 21:00N 80°18' E 011°48'9 3.1 220 / 121012.3 5.2 1.5 5.9
2017-Oct-13 18:00N 80°12' E 011°06'24 8.1 120 / 81012.0 4.7 1.3 5.3
2017-Oct-13 15:00N 79°48' E 011°30'1 0.4 1012.7 3.3-0.2 4.6
2017-Oct-13 12:00N 79°48' E 011°36'2 0.7 300 1013.5 3.2-0.5 4.9
2017-Oct-13 09:00N 79°48' E 011°24'6 2.1 080 / 81013.7 3.3-1.0 4.8
2017-Oct-13 06:00N 79°42' E 011°12'7 2.3 100 / 81013.6 3.0-1.9 4.2
2017-Oct-13 03:00N 79°48' E 010°54'2 0.7 060 / 61013.7 2.8-1.0 4.7
2017-Oct-13 00:00N 79°48' E 011°06'2 0.7 170 / 41013.8 1.8-0.3 4.9
2017-Oct-12 21:00N 79°48' E 011°18'0 0.0 130 / 41013.8 1.1-1.4 3.9
2017-Oct-12 18:00N 79°48' E 011°18'0 0.0 160 / 41013.829.7 1.0-1.0 4.2
2017-Oct-12 15:00N 79°48' E 011°18'0 0.0 150 / 61014.2 1.5-0.7 4.3
2017-Oct-12 12:00N 79°48' E 011°18'0 0.0 080 / 81014.3 2.5-0.5 4.8
2017-Oct-12 09:00N 79°48' E 011°18'3 1.1 060 / 121014.5 3.0 1.1 4.4
2017-Oct-12 06:00N 79°48' E 011°00'1 0.4 070 / 81014.613.5 1.0 4.2 2.1 5.0
2017-Oct-12 03:00N 79°48' E 010°54'3 1.1 060 / 101015.3 3.8 2.8 5.2
2017-Oct-12 00:00N 79°48' E 010°36'3010.1 200 / 81016.0 3.0 2.2 4.9
2017-Oct-11 21:00N 79°18' E 010°12'3010.0 110 / 81016.3 3.1 1.6 5.1
2017-Oct-11 18:00N 78°48' E 010°06'52 8.7 160 / 101016.7 2.7 1.8 5.1
2017-Oct-11 12:00N 78°06' E 012°42'23 7.7 110 / 141017.7 2.1 1.3 5.1
2017-Oct-11 09:00N 78°12' E 014°30'13 4.5 360 / 101018.2 1.1 0.5 3.6
2017-Oct-11 06:00N 78°12' E 015°36'0 0.0 290 / 21018.1 0.6-1.0 4.5
2017-Oct-11 03:00N 78°12' E 015°36'0 0.0 100 / 41018.1 1.3-0.6 4.6
2017-Oct-11 00:00N 78°12' E 015°36'0 0.0 300 / 41018.3 2.2-0.2 4.7
2017-Oct-10 21:00N 78°12' E 015°36'0 0.0 120 / 61018.6 2.0-0.5 4.6
2017-Oct-10 18:00N 78°12' E 015°36'0 0.0 140 / 41018.2 1.1-1.4 4.8
2017-Oct-10 15:00N 78°12' E 015°36'0 0.0 150 / 21018.0 3.6 0.1 4.5
2017-Oct-10 12:00N 78°12' E 015°36'0 0.0 110 / 21018.2 2.8-0.5 4.5
2017-Oct-10 09:00N 78°12' E 015°36'0 0.0 120 / 81018.1 1.6-1.4 4.2
2017-Oct-10 06:00N 78°12' E 015°36'0 0.0 100 / 61017.3 1.3-1.7 4.1
2017-Oct-09 06:00N 78°12' E 015°36'24 8.1 120 / 121014.3 2.1-1.2 4.3
2017-Oct-09 03:00N 78°06' E 013°42'3010.1 190 / 171014.1 3.5 1.3 5.0
2017-Oct-09 00:00N 78°00' E 011°18'28 9.4 300 / 101013.2 3.5 1.8 5.1
2017-Oct-08 21:00N 77°54' E 009°06'12 4.1 320 / 141012.7 3.0 1.8 7.5
2017-Oct-08 18:00N 78°06' E 008°54'25 8.3 240 / 81011.813.5 2.0 4.5 2.3 7.5
2017-Oct-08 15:00N 78°30' E 008°24'6 2.0 200 / 81011.7 4.2 1.1 7.2
2017-Oct-08 12:00N 78°36' E 008°24'19 6.5 220 / 141011.8 5.4 2.0 4.2 2.1 7.4
2017-Oct-08 09:00N 78°18' E 009°00'18 6.0 200 / 231012.2 5.4 2.0 4.4 1.3 7.5
2017-Oct-08 06:00N 78°00' E 009°00'14 4.5 180 / 231012.7 8.1 2.0 4.0 1.3 7.7
2017-Oct-08 03:00N 77°48' E 009°30'14 4.5 200 / 211013.6 3.1-0.2 7.5
2017-Oct-08 00:00N 77°36' E 010°00'   200 / 161014.0 3.7-2.3 7.4
Track history (hours):
 
Tides and Currents Weather Stations Pressure Air Temp Water Temp Dewpoint Dewpoint Depression Visibility Wind Speed Wind Dir Waves Ship Positions

Oceanographic research ship RV Helmer Hanssen (Norway)

ex Jan Mayen.

Ship's website: http://uit.no/bfe

Detailed information on ship capabilities available from University of Delaware's Ocean Information Center and ARCUS's ALIAS (Arctic Logistics Information and Support) project.

Last reported at 2017-Oct-18 00:00 UTC. Time now 2017-Oct-18 02:11 UTC.
Position N 80°18' E 015°18'.

Length 64 m; beam 13 m.

Type: Cargo ship. MMSI: 257471500.

Wind from 180 at 16 knots

Barometer 1014.3 mb
Air temperature 3.7 ° C
Dewpoint 0.6 ° C
Water temperature 5.2 ° C

Date/timePositionNaut miles runAvg speedWind from/ knotsBaromVisibWave heightAir tempDewpointWater temp
2017-Oct-18 00:00N 80°18' E 015°18'3110.4 180 / 161014.3 3.7 0.6 5.2
2017-Oct-17 21:00N 80°42' E 013°18'3110.2 170 / 21013.5 2.7 1.6 2.7
2017-Oct-17 18:00N 81°06' E 011°18'27 8.9 240 / 101012.1 -0.5-1.4-0.4
2017-Oct-17 15:00N 81°30' E 010°00'24 8.0 100 / 161011.5 -0.8-1.7-1.6
2017-Oct-17 12:00N 81°54' E 010°00'1 0.3 120 / 141012.7 -0.9-2.2-1.5
2017-Oct-17 09:00N 81°54' E 009°54'10 3.5 110 / 141012.6 -1.1-2.3-1.4
2017-Oct-17 06:00N 81°48' E 008°54'1 0.3 110 / 171011.7 -0.9-1.9-1.5
2017-Oct-17 03:00N 81°48' E 009°00'0 0.0 130 / 211011.0 -0.6-1.7-1.6
2017-Oct-17 00:00N 81°48' E 009°00'0 0.0 110 / 161011.3 -1.0-1.9-1.5
2017-Oct-16 21:00N 81°48' E 009°00'3 0.9 120 / 161010.8 -0.5-1.5-1.6
2017-Oct-16 18:00N 81°48' E 008°42'12 4.0 110 / 121010.2 -1.1-2.0-1.6
2017-Oct-16 15:00N 81°36' E 008°54'3010.0 110 / 171009.5 -0.2-1.0-1.7
2017-Oct-16 12:00N 81°06' E 009°00'3210.7 100 / 171008.5 -0.2-1.0-1.6
2017-Oct-16 09:00N 80°36' E 010°12'6 2.1 130 / 171008.2 2.7-0.5-0.4
2017-Oct-16 06:00N 80°30' E 010°00'6 2.0 120 / 161007.729.7 1.5 5.0 1.5 4.3
2017-Oct-16 03:00N 80°36' E 010°06'0 0.0 110 / 171008.5 4.5 1.3 4.2
2017-Oct-16 00:00N 80°36' E 010°06'14 4.6 140 / 191009.3 5.2 1.3 4.2
2017-Oct-15 21:00N 80°24' E 009°24'9 3.1 130 / 161009.729.7 1.5 4.9 1.6 5.3
2017-Oct-15 18:00N 80°18' E 008°42'3 1.0 130 / 161010.2 4.7 0.6 4.8
2017-Oct-15 15:00N 80°18' E 009°00'9 3.1 120 / 161011.1 5.0 1.3 5.4
2017-Oct-15 12:00N 80°12' E 008°18'13 4.4 110 / 121011.529.7 1.5 5.7 1.8 5.5
2017-Oct-15 09:00N 80°00' E 007°48'1 0.3 090 / 81011.329.7 1.5 5.5 2.2 5.4
2017-Oct-15 06:00N 80°00' E 007°42'6 2.0 080 / 141010.7 1.5 5.9-0.3 6.2
2017-Oct-15 03:00N 80°06' E 007°48'6 2.0 090 / 41010.7 5.2 2.0 5.3
2017-Oct-15 00:00N 80°00' E 007°48'6 2.1 160 / 41010.5 5.2 2.2 5.0
2017-Oct-14 21:00N 79°54' E 008°00'14 4.6 160 / 21009.7 5.4 2.6 7.0
2017-Oct-14 18:00N 79°54' E 009°18'3210.5 180 / 21009.2 5.2 1.6 6.4
2017-Oct-14 15:00N 79°54' E 012°18'22 7.3 130 / 161009.8 4.7-0.0 5.3
2017-Oct-14 12:00N 80°00' E 014°18'1 0.3 140 / 251010.8 5.2-0.3 4.5
2017-Oct-14 09:00N 80°00' E 014°24'6 2.0 130 / 161011.2 5.0 0.6 4.5
2017-Oct-14 06:00N 79°54' E 014°24'9 3.2 140 / 171011.3 0.5 5.2 1.1 4.7
2017-Oct-14 03:00N 80°00' E 013°42'22 7.5 120 / 121011.8 4.9 0.8 4.8
2017-Oct-14 00:00N 80°18' E 012°24'6 2.0 070 / 101012.6 5.0 1.3 5.6
2017-Oct-13 21:00N 80°18' E 011°48'9 3.1 220 / 121012.3 5.2 1.5 5.9
2017-Oct-13 18:00N 80°12' E 011°06'24 8.1 120 / 81012.0 4.7 1.3 5.3
2017-Oct-13 15:00N 79°48' E 011°30'1 0.4 1012.7 3.3-0.2 4.6
2017-Oct-13 12:00N 79°48' E 011°36'2 0.7 300 1013.5 3.2-0.5 4.9
2017-Oct-13 09:00N 79°48' E 011°24'6 2.1 080 / 81013.7 3.3-1.0 4.8
2017-Oct-13 06:00N 79°42' E 011°12'7 2.3 100 / 81013.6 3.0-1.9 4.2
2017-Oct-13 03:00N 79°48' E 010°54'2 0.7 060 / 61013.7 2.8-1.0 4.7
2017-Oct-13 00:00N 79°48' E 011°06'2 0.7 170 / 41013.8 1.8-0.3 4.9
2017-Oct-12 21:00N 79°48' E 011°18'0 0.0 130 / 41013.8 1.1-1.4 3.9
2017-Oct-12 18:00N 79°48' E 011°18'0 0.0 160 / 41013.829.7 1.0-1.0 4.2
2017-Oct-12 15:00N 79°48' E 011°18'0 0.0 150 / 61014.2 1.5-0.7 4.3
2017-Oct-12 12:00N 79°48' E 011°18'0 0.0 080 / 81014.3 2.5-0.5 4.8
2017-Oct-12 09:00N 79°48' E 011°18'3 1.1 060 / 121014.5 3.0 1.1 4.4
2017-Oct-12 06:00N 79°48' E 011°00'1 0.4 070 / 81014.613.5 1.0 4.2 2.1 5.0
2017-Oct-12 03:00N 79°48' E 010°54'3 1.1 060 / 101015.3 3.8 2.8 5.2
2017-Oct-12 00:00N 79°48' E 010°36'3010.1 200 / 81016.0 3.0 2.2 4.9
2017-Oct-11 21:00N 79°18' E 010°12'3010.0 110 / 81016.3 3.1 1.6 5.1
2017-Oct-11 18:00N 78°48' E 010°06'52 8.7 160 / 101016.7 2.7 1.8 5.1
2017-Oct-11 12:00N 78°06' E 012°42'23 7.7 110 / 141017.7 2.1 1.3 5.1
2017-Oct-11 09:00N 78°12' E 014°30'13 4.5 360 / 101018.2 1.1 0.5 3.6
2017-Oct-11 06:00N 78°12' E 015°36'0 0.0 290 / 21018.1 0.6-1.0 4.5
2017-Oct-11 03:00N 78°12' E 015°36'0 0.0 100 / 41018.1 1.3-0.6 4.6
2017-Oct-11 00:00N 78°12' E 015°36'0 0.0 300 / 41018.3 2.2-0.2 4.7
2017-Oct-10 21:00N 78°12' E 015°36'0 0.0 120 / 61018.6 2.0-0.5 4.6
2017-Oct-10 18:00N 78°12' E 015°36'0 0.0 140 / 41018.2 1.1-1.4 4.8
2017-Oct-10 15:00N 78°12' E 015°36'0 0.0 150 / 21018.0 3.6 0.1 4.5
2017-Oct-10 12:00N 78°12' E 015°36'0 0.0 110 / 21018.2 2.8-0.5 4.5
2017-Oct-10 09:00N 78°12' E 015°36'0 0.0 120 / 81018.1 1.6-1.4 4.2
2017-Oct-10 06:00N 78°12' E 015°36'0 0.0 100 / 61017.3 1.3-1.7 4.1
2017-Oct-09 06:00N 78°12' E 015°36'24 8.1 120 / 121014.3 2.1-1.2 4.3
2017-Oct-09 03:00N 78°06' E 013°42'3010.1 190 / 171014.1 3.5 1.3 5.0
2017-Oct-09 00:00N 78°00' E 011°18'28 9.4 300 / 101013.2 3.5 1.8 5.1
2017-Oct-08 21:00N 77°54' E 009°06'12 4.1 320 / 141012.7 3.0 1.8 7.5
2017-Oct-08 18:00N 78°06' E 008°54'25 8.3 240 / 81011.813.5 2.0 4.5 2.3 7.5
2017-Oct-08 15:00N 78°30' E 008°24'6 2.0 200 / 81011.7 4.2 1.1 7.2
2017-Oct-08 12:00N 78°36' E 008°24'19 6.5 220 / 141011.8 5.4 2.0 4.2 2.1 7.4
2017-Oct-08 09:00N 78°18' E 009°00'18 6.0 200 / 231012.2 5.4 2.0 4.4 1.3 7.5
2017-Oct-08 06:00N 78°00' E 009°00'14 4.5 180 / 231012.7 8.1 2.0 4.0 1.3 7.7
2017-Oct-08 03:00N 77°48' E 009°30'14 4.5 200 / 211013.6 3.1-0.2 7.5
2017-Oct-08 00:00N 77°36' E 010°00'   200 / 161014.0 3.7-2.3 7.4

Dump ship's entire track history